Time;durP1;ratioP1;P1;durP2;ratioP2;P2;SDS_P1;SDS_P2;PMS_P1;PMS_P2;Temp;Humidity;BMP_temperature;BMP_pressure;BME280_temperature;BME280_humidity;BME280_pressure;Samples;Min_cycle;Max_cycle;Signal;HPM_P1;HPM_P2
2022/04/10 00:00:53;;;;;;;21.35;2.95;;;4.20;99.90;;;;;;4863694;29;20434;-88
2022/04/10 00:03:28;;;;;;;25.98;3.75;;;4.00;99.90;;;;;;4864520;29;20041;-87
2022/04/10 00:05:54;;;;;;;28.10;3.67;;;3.00;99.90;;;;;;4863563;29;20044;-87
2022/04/10 00:08:20;;;;;;;17.58;2.80;;;3.00;99.90;;;;;;4863578;29;20064;-87
2022/04/10 00:10:46;;;;;;;17.35;3.38;;;2.80;99.90;;;;;;4863422;29;20048;-87
2022/04/10 00:13:12;;;;;;;23.40;3.15;;;3.00;99.90;;;;;;4863212;29;20454;-87
2022/04/10 00:15:50;;;;;;;23.02;3.63;;;3.20;99.90;;;;;;4863240;29;20053;-87
2022/04/10 00:18:15;;;;;;;20.33;3.53;;;2.90;99.90;;;;;;4879144;29;20052;-87
2022/04/10 00:20:41;;;;;;;22.30;3.60;;;2.90;99.90;;;;;;4862849;29;20072;-87
2022/04/10 00:23:08;;;;;;;27.48;3.90;;;4.00;99.90;;;;;;4864156;29;20045;-88
2022/04/10 00:25:43;;;;;;;23.25;3.60;;;3.00;99.90;;;;;;4864254;29;20053;-87
2022/04/10 00:28:09;;;;;;;26.85;3.50;;;3.00;99.90;;;;;;4862310;29;20059;-87
2022/04/10 00:30:35;;;;;;;21.75;3.05;;;3.10;99.90;;;;;;4877903;29;20045;-86
2022/04/10 00:33:01;;;;;;;18.85;3.45;;;3.10;99.90;;;;;;4863754;29;20159;-86
2022/04/10 00:35:26;;;;;;;18.55;2.92;;;3.20;99.90;;;;;;4862728;29;20512;-87
2022/04/10 00:38:04;;;;;;;21.88;3.33;;;2.90;99.90;;;;;;4863230;29;20084;-86
2022/04/10 00:40:30;;;;;;;20.02;3.30;;;3.10;99.90;;;;;;4862662;29;20049;-87
2022/04/10 00:42:55;;;;;;;16.20;2.90;;;3.20;99.90;;;;;;4862952;29;20057;-88
2022/04/10 00:45:21;;;;;;;18.70;4.13;;;3.20;99.90;;;;;;4862808;29;20077;-87
2022/04/10 00:48:08;;;;;;;21.55;3.70;;;3.10;99.90;;;;;;4862754;29;20052;-87
2022/04/10 00:50:34;;;;;;;17.42;3.33;;;3.20;99.90;;;;;;4862745;29;20051;-87
2022/04/10 00:53:00;;;;;;;21.92;2.92;;;3.20;99.90;;;;;;4863104;29;20044;-87
2022/04/10 00:55:36;;;;;;;24.05;3.20;;;3.20;99.90;;;;;;4862389;29;20092;-88
2022/04/10 00:58:02;;;;;;;20.48;2.65;;;3.10;99.90;;;;;;4863169;29;20402;-87
2022/04/10 01:00:27;;;;;;;18.77;2.50;;;3.20;99.90;;;;;;4862254;29;20054;-86
2022/04/10 01:02:53;;;;;;;22.08;3.17;;;4.50;99.90;;;;;;4877526;29;20509;-86
2022/04/10 01:05:19;;;;;;;21.60;3.03;;;3.00;99.90;;;;;;4877505;29;20049;-87
2022/04/10 01:07:56;;;;;;;17.30;2.92;;;3.10;99.90;;;;;;4878651;29;20123;-87
2022/04/10 01:10:22;;;;;;;16.98;3.05;;;3.40;99.90;;;;;;4861610;29;20048;-86
2022/04/10 01:12:48;;;;;;;16.13;2.85;;;3.10;99.90;;;;;;4878305;29;20055;-87
2022/04/10 01:15:13;;;;;;;16.40;2.88;;;3.00;99.90;;;;;;4861220;29;20254;-86
2022/04/10 01:17:39;;;;;;;19.63;2.92;;;3.10;99.90;;;;;;4862215;29;20099;-86
2022/04/10 01:20:07;;;;;;;17.50;2.50;;;3.00;99.90;;;;;;4862442;29;20500;-86
2022/04/10 01:22:34;;;;;;;14.48;3.08;;;2.90;99.90;;;;;;4862522;29;20048;-86
2022/04/10 01:25:02;;;;;;;13.15;2.50;;;3.00;99.90;;;;;;4861732;29;20085;-87
2022/04/10 01:27:28;;;;;;;16.70;3.55;;;3.00;99.90;;;;;;4878249;29;20057;-87
2022/04/10 01:29:54;;;;;;;18.73;2.33;;;3.00;99.90;;;;;;4877536;29;20049;-86
2022/04/10 01:32:19;;;;;;;19.58;2.45;;;3.00;99.90;;;;;;4861264;29;20063;-86
2022/04/10 01:34:46;;;;;;;18.90;2.67;;;2.90;99.90;;;;;;4862589;29;20096;-86
2022/04/10 01:37:15;;;;;;;18.77;2.50;;;2.90;99.90;;;;;;4861833;29;20056;-86
2022/04/10 01:39:40;;;;;;;18.23;2.92;;;2.90;99.90;;;;;;4876707;29;20099;-86
2022/04/10 01:42:06;;;;;;;16.67;3.13;;;2.80;99.90;;;;;;4877661;29;20135;-86
2022/04/10 01:44:40;;;;;;;18.95;2.95;;;2.80;99.90;;;;;;4860873;29;20113;-86
2022/04/10 01:47:06;;;;;;;21.75;3.35;;;2.70;99.90;;;;;;4876850;29;20053;-86
2022/04/10 01:49:31;;;;;;;13.85;2.88;;;2.70;99.90;;;;;;4861501;29;20052;-86
2022/04/10 01:51:57;;;;;;;16.98;3.40;;;2.70;99.90;;;;;;4876615;29;20067;-86
2022/04/10 01:54:23;;;;;;;18.38;3.28;;;2.70;99.90;;;;;;4861182;29;20047;-86
2022/04/10 01:57:08;;;;;;;15.23;2.67;;;2.60;99.90;;;;;;4874124;29;20413;-86
2022/04/10 01:59:34;;;;;;;19.10;2.50;;;2.60;99.90;;;;;;4876722;29;20067;-86
2022/04/10 02:02:12;;;;;;;16.17;2.67;;;2.60;99.90;;;;;;4861709;29;20377;-86
2022/04/10 02:04:37;;;;;;;18.25;3.47;;;3.00;99.90;;;;;;4892816;29;20053;-85
2022/04/10 02:07:03;;;;;;;20.48;3.58;;;2.70;99.90;;;;;;4860752;29;20060;-86
2022/04/10 02:09:29;;;;;;;15.52;2.45;;;2.70;99.90;;;;;;4861604;29;20096;-86
2022/04/10 02:11:55;;;;;;;22.45;3.25;;;2.60;99.90;;;;;;4861657;29;20107;-86
2022/04/10 02:14:32;;;;;;;20.23;3.95;;;2.60;99.90;;;;;;4891368;29;20092;-86
2022/04/10 02:16:58;;;;;;;17.80;2.92;;;2.60;99.90;;;;;;4877219;29;20409;-86
2022/04/10 02:19:24;;;;;;;13.25;2.63;;;1.90;99.90;;;;;;4861688;29;20045;-88
2022/04/10 02:21:49;;;;;;;23.80;3.13;;;2.40;99.90;;;;;;4861689;29;20127;-88
2022/04/10 02:24:27;;;;;;;24.13;3.30;;;2.40;99.90;;;;;;4862472;29;20178;-88
2022/04/10 02:26:53;;;;;;;25.30;3.85;;;2.50;99.90;;;;;;4862920;29;20040;-88
2022/04/10 02:29:19;;;;;;;21.42;2.90;;;2.40;99.90;;;;;;4862134;29;20045;-89
2022/04/10 02:31:44;;;;;;;27.00;3.72;;;2.10;99.90;;;;;;4862283;29;20058;-89
2022/04/10 02:34:10;;;;;;;26.83;3.47;;;2.50;99.90;;;;;;4861319;29;20051;-89
2022/04/10 02:36:48;;;;;;;17.50;3.60;;;3.10;99.90;;;;;;4862831;29;20059;-88
2022/04/10 02:39:13;;;;;;;23.10;2.85;;;2.90;99.90;;;;;;4862201;29;20091;-89
2022/04/10 02:41:39;;;;;;;19.95;3.13;;;2.50;99.90;;;;;;4861622;29;20091;-88
2022/04/10 02:44:05;;;;;;;26.70;3.90;;;2.40;99.90;;;;;;4861377;29;20119;-86
2022/04/10 02:46:44;;;;;;;20.45;2.97;;;2.40;99.90;;;;;;4861452;29;20087;-88
2022/04/10 02:49:09;;;;;;;16.27;2.50;;;3.00;99.90;;;;;;4860969;29;20476;-88
2022/04/10 02:51:35;;;;;;;16.60;2.67;;;2.40;99.90;;;;;;4861602;29;20053;-87
2022/04/10 02:54:01;;;;;;;15.75;2.25;;;2.50;99.90;;;;;;4861233;29;20445;-87
2022/04/10 02:56:26;;;;;;;19.15;3.10;;;2.40;99.90;;;;;;4860873;29;20067;-86
2022/04/10 02:59:01;;;;;;;17.67;2.85;;;1.70;99.90;;;;;;4861201;29;20045;-87
2022/04/10 03:01:27;;;;;;;18.58;3.15;;;2.10;99.90;;;;;;4861258;29;20092;-87
2022/04/10 03:03:53;;;;;;;22.80;3.92;;;2.10;99.90;;;;;;4861476;29;20083;-86
2022/04/10 03:06:19;;;;;;;18.98;3.38;;;1.90;99.90;;;;;;4861235;29;20064;-86
2022/04/10 03:08:45;;;;;;;18.33;2.80;;;2.20;99.90;;;;;;4876550;29;20397;-87
2022/04/10 03:11:18;;;;;;;15.73;2.45;;;2.10;99.90;;;;;;4860889;29;20120;-86
2022/04/10 03:13:45;;;;;;;27.60;2.97;;;2.30;99.90;;;;;;4865028;29;20055;-85
2022/04/10 03:16:11;;;;;;;13.55;2.45;;;3.40;99.90;;;;;;4863556;29;20053;-87
2022/04/10 03:18:37;;;;;;;12.25;2.60;;;2.30;99.90;;;;;;4864755;29;20497;-86
2022/04/10 03:21:09;;;;;;;17.80;3.13;;;2.30;99.90;;;;;;4879733;29;20045;-87
2022/04/10 03:23:35;;;;;;;13.38;2.45;;;2.90;99.90;;;;;;4864264;29;20091;-86
2022/04/10 03:26:00;;;;;;;20.20;2.88;;;1.60;99.90;;;;;;4864827;29;20106;-88
2022/04/10 03:28:26;;;;;;;18.77;2.25;;;2.50;99.90;;;;;;4864968;29;20077;-88
2022/04/10 03:30:52;;;;;;;13.32;2.10;;;2.50;99.90;;;;;;4864099;29;20512;-88
2022/04/10 03:33:47;;;;;;;18.35;2.33;;;2.40;99.90;;;;;;4865234;29;20509;-88
2022/04/10 03:36:26;;;;;;;16.77;2.22;;;2.80;99.90;;;;;;4856553;29;20052;-88
2022/04/10 03:38:52;;;;;;;14.02;2.08;;;3.30;99.90;;;;;;4864185;29;20442;-89
2022/04/10 03:41:18;;;;;;;13.68;2.40;;;2.50;99.90;;;;;;4865278;29;20100;-89
2022/04/10 03:43:43;;;;;;;13.45;1.85;;;4.30;99.90;;;;;;4864718;29;20059;-86
2022/04/10 03:46:24;;;;;;;9.43;1.50;;;2.70;99.90;;;;;;4863646;29;20087;-88
2022/04/10 03:48:50;;;;;;;8.30;1.55;;;2.60;99.90;;;;;;4864247;29;20060;-87
2022/04/10 03:51:15;;;;;;;13.50;2.00;;;3.50;99.90;;;;;;4864266;29;20048;-87
2022/04/10 03:53:41;;;;;;;10.90;1.90;;;3.70;99.90;;;;;;4864354;29;20088;-88
2022/04/10 03:56:22;;;;;;;13.05;2.00;;;2.80;99.90;;;;;;4864790;29;20100;-87
2022/04/10 03:58:48;;;;;;;11.27;1.90;;;2.70;99.90;;;;;;4863446;29;20051;-88
2022/04/10 04:01:13;;;;;;;14.23;1.92;;;4.00;99.90;;;;;;4864660;29;20048;-88
2022/04/10 04:03:39;;;;;;;9.35;1.35;;;3.20;99.90;;;;;;4864397;29;20074;-88
2022/04/10 04:06:20;;;;;;;12.02;1.55;;;4.10;99.90;;;;;;4863596;29;20088;-88
2022/04/10 04:08:46;;;;;;;11.52;2.20;;;2.60;99.90;;;;;;4864780;29;20052;-88
2022/04/10 04:11:12;;;;;;;10.95;1.75;;;2.70;99.90;;;;;;4863965;29;20108;-88
2022/04/10 04:13:40;;;;;;;6.38;1.40;;;2.90;99.90;;;;;;4864159;29;20507;-88
2022/04/10 04:16:23;;;;;;;15.32;1.75;;;2.80;99.90;;;;;;4881563;29;20117;-88
2022/04/10 04:18:49;;;;;;;6.82;1.60;;;3.70;99.90;;;;;;4863406;29;20056;-88
2022/04/10 04:21:32;;;;;;;10.27;1.38;;;2.90;99.90;;;;;;4862735;29;20048;-88
2022/04/10 04:23:57;;;;;;;11.43;1.85;;;3.00;99.90;;;;;;4863058;29;20057;-87
2022/04/10 04:26:38;;;;;;;12.40;1.52;;;2.90;99.90;;;;;;4863711;29;20036;-86
2022/04/10 04:29:04;;;;;;;8.68;1.65;;;2.90;99.90;;;;;;4862993;29;20064;-88
2022/04/10 04:31:29;;;;;;;11.93;1.65;;;3.00;99.90;;;;;;4863231;29;20052;-87
2022/04/10 04:33:55;;;;;;;10.40;1.52;;;3.50;99.90;;;;;;4862775;29;20057;-87
2022/04/10 04:36:38;;;;;;;14.07;1.70;;;3.10;99.90;;;;;;4863704;29;20060;-88
2022/04/10 04:39:04;;;;;;;10.38;1.13;;;3.00;99.90;;;;;;4863705;29;20108;-87
2022/04/10 04:41:29;;;;;;;7.15;1.38;;;3.20;99.90;;;;;;4863237;29;20087;-87
2022/04/10 04:43:55;;;;;;;7.53;1.40;;;3.20;99.90;;;;;;4862871;29;20578;-87
2022/04/10 04:46:30;;;;;;;9.20;1.27;;;3.80;99.90;;;;;;4862836;29;20049;-88
2022/04/10 04:48:56;;;;;;;11.55;1.10;;;2.30;99.90;;;;;;4862224;29;20485;-86
2022/04/10 04:51:23;;;;;;;13.73;1.60;;;2.60;99.90;;;;;;4862311;29;20112;-86
2022/04/10 04:53:48;;;;;;;12.30;1.50;;;2.70;99.90;;;;;;4863316;29;20408;-86
2022/04/10 04:56:28;;;;;;;8.68;1.50;;;3.70;99.90;;;;;;4876941;29;20621;-86
2022/04/10 04:58:53;;;;;;;8.95;1.52;;;2.60;99.90;;;;;;4861901;29;20048;-87
2022/04/10 05:01:19;;;;;;;12.60;1.80;;;3.40;99.90;;;;;;4862314;29;20055;-86
2022/04/10 05:03:45;;;;;;;10.35;2.25;;;3.40;99.90;;;;;;4862116;29;20076;-86
2022/04/10 05:06:25;;;;;;;8.77;1.70;;;2.00;99.90;;;;;;4861971;29;20521;-87
2022/04/10 05:08:51;;;;;;;12.00;1.60;;;2.30;99.90;;;;;;4861808;29;20505;-87
2022/04/10 05:11:16;;;;;;;11.00;1.95;;;2.30;99.90;;;;;;4863038;29;20567;-87
2022/04/10 05:13:43;;;;;;;16.52;2.05;;;2.30;99.90;;;;;;4863044;29;20529;-86
2022/04/10 05:16:22;;;;;;;11.02;1.70;;;3.40;99.90;;;;;;4860981;29;20074;-86
2022/04/10 05:18:48;;;;;;;13.88;2.65;;;2.40;99.90;;;;;;4861507;29;20135;-85
2022/04/10 05:21:14;;;;;;;9.55;1.60;;;2.40;99.90;;;;;;4862101;29;20040;-87
2022/04/10 05:23:40;;;;;;;11.45;1.55;;;3.80;99.90;;;;;;4862193;29;20044;-86
2022/04/10 05:26:18;;;;;;;9.32;1.70;;;2.60;99.90;;;;;;4862215;29;20048;-86
2022/04/10 05:28:44;;;;;;;14.02;1.48;;;2.40;99.90;;;;;;4862187;29;20089;-87
2022/04/10 05:31:10;;;;;;;11.52;1.95;;;2.50;99.90;;;;;;4861231;29;20147;-86
2022/04/10 05:33:36;;;;;;;14.95;2.08;;;2.60;99.90;;;;;;4862453;29;20048;-86
2022/04/10 05:36:10;;;;;;;13.20;1.88;;;4.10;99.90;;;;;;4862106;29;20057;-87
2022/04/10 05:38:38;;;;;;;12.00;1.90;;;2.70;99.90;;;;;;4862005;29;20445;-86
2022/04/10 05:41:04;;;;;;;10.25;1.63;;;2.80;99.90;;;;;;4861090;29;20045;-87
2022/04/10 05:43:30;;;;;;;11.10;1.80;;;2.80;99.90;;;;;;4862608;29;20129;-87
2022/04/10 05:45:56;;;;;;;10.80;1.90;;;2.90;99.90;;;;;;4861237;29;20048;-87
2022/04/10 05:48:46;;;;;;;17.88;2.00;;;3.40;99.90;;;;;;4862219;29;20057;-87
2022/04/10 05:51:12;;;;;;;10.32;1.98;;;3.10;99.90;;;;;;4877138;29;20109;-87
2022/04/10 05:53:50;;;;;;;13.10;2.03;;;3.20;99.90;;;;;;4863459;29;20512;-87
2022/04/10 05:56:16;;;;;;;11.82;2.35;;;4.60;99.90;;;;;;4863363;29;20040;-87
2022/04/10 05:58:42;;;;;;;13.50;2.63;;;3.30;99.90;;;;;;4863227;29;20188;-87
2022/04/10 06:01:07;;;;;;;10.02;2.08;;;3.30;99.90;;;;;;4862445;29;20087;-87
2022/04/10 06:03:45;;;;;;;11.75;1.60;;;3.20;99.90;;;;;;4863837;29;20119;-87
2022/04/10 06:06:13;;;;;;;22.77;2.60;;;3.10;99.90;;;;;;4862759;29;20103;-87
2022/04/10 06:08:39;;;;;;;13.25;1.83;;;3.10;99.90;;;;;;4862697;29;20537;-87
2022/04/10 06:11:05;;;;;;;18.80;2.55;;;3.70;99.90;;;;;;4877450;29;20143;-86
2022/04/10 06:13:46;;;;;;;14.15;2.47;;;3.20;99.90;;;;;;4861655;29;20498;-86
2022/04/10 06:16:12;;;;;;;10.73;1.83;;;3.40;99.90;;;;;;4861653;29;20274;-86
2022/04/10 06:18:37;;;;;;;17.33;2.53;;;3.50;99.90;;;;;;4862688;29;20041;-87
2022/04/10 06:21:03;;;;;;;13.27;2.22;;;3.40;99.90;;;;;;4862824;29;20056;-87
2022/04/10 06:23:44;;;;;;;17.35;3.20;;;3.50;99.90;;;;;;4863803;29;20449;-90
2022/04/10 06:26:10;;;;;;;14.15;2.42;;;3.50;99.90;;;;;;4862305;29;20049;-87
2022/04/10 06:28:35;;;;;;;9.98;2.25;;;3.30;99.90;;;;;;4862685;29;20103;-85
2022/04/10 06:31:01;;;;;;;10.52;2.00;;;4.10;99.90;;;;;;4861546;29;20045;-88
2022/04/10 06:33:39;;;;;;;11.35;1.98;;;3.70;99.90;;;;;;4862976;29;20639;-86
2022/04/10 06:36:05;;;;;;;15.20;2.25;;;3.70;99.90;;;;;;4862780;29;20053;-89
2022/04/10 06:38:30;;;;;;;15.40;2.15;;;3.20;99.90;;;;;;4862892;29;20053;-89
2022/04/10 06:41:08;;;;;;;16.50;2.78;;;4.00;99.90;;;;;;4870826;29;20497;-89
2022/04/10 06:43:34;;;;;;;12.60;2.25;;;3.10;99.90;;;;;;4879052;29;20080;-89
2022/04/10 06:46:00;;;;;;;15.85;1.90;;;4.10;99.90;;;;;;4878215;29;20107;-89
2022/04/10 06:48:25;;;;;;;9.80;1.67;;;3.30;99.90;;;;;;4881425;29;20068;-90
2022/04/10 06:51:03;;;;;;;16.15;3.22;;;3.30;99.90;;;;;;4882387;29;20417;-88
2022/04/10 06:53:29;;;;;;;11.23;1.90;;;3.40;99.90;;;;;;4882988;29;20081;-90
2022/04/10 06:55:55;;;;;;;12.25;2.13;;;3.50;99.90;;;;;;4883020;29;20056;-89
2022/04/10 06:58:22;;;;;;;9.38;2.20;;;3.50;99.90;;;;;;4882085;29;20088;-89
2022/04/10 07:01:07;;;;;;;17.25;2.63;;;4.10;99.90;;;;;;4882553;29;20049;-92
2022/04/10 07:03:45;;;;;;;15.68;2.15;;;3.10;99.90;;;;;;4882601;29;20041;-88
2022/04/10 07:06:11;;;;;;;9.68;1.83;;;3.80;99.90;;;;;;4882091;29;20091;-87
2022/04/10 07:08:37;;;;;;;15.98;2.42;;;4.00;99.90;;;;;;4882690;29;20080;-88
2022/04/10 07:11:03;;;;;;;15.85;2.08;;;4.40;99.90;;;;;;4882615;29;20052;-87
2022/04/10 07:13:44;;;;;;;14.20;2.40;;;4.90;99.90;;;;;;4879315;29;20143;-85
2022/04/10 07:16:10;;;;;;;15.48;2.65;;;4.40;99.90;;;;;;4866170;29;20052;-86
2022/04/10 07:18:35;;;;;;;11.77;2.30;;;4.50;99.90;;;;;;4863659;29;20105;-85
2022/04/10 07:21:01;;;;;;;12.18;2.17;;;4.60;99.90;;;;;;4879526;29;20506;-88
2022/04/10 07:26:18;;;;;;;13.15;2.05;;;5.60;99.90;;;;;;4898744;29;20040;-86
2022/04/10 07:28:43;;;;;;;10.82;2.17;;;4.70;99.90;;;;;;4865877;29;20108;-85
2022/04/10 07:31:10;;;;;;;20.85;2.45;;;5.10;99.90;;;;;;4872544;29;20036;-87
2022/04/10 07:33:51;;;;;;;14.88;2.47;;;4.90;99.90;;;;;;4865671;29;20104;-86
2022/04/10 07:36:16;;;;;;;17.55;2.75;;;5.50;99.90;;;;;;4865431;29;20047;-87
2022/04/10 07:38:50;;;;;;;10.15;1.90;;;4.90;99.90;;;;;;4871294;29;20048;-87
2022/04/10 07:41:16;;;;;;;15.38;2.13;;;4.90;99.90;;;;;;4868110;29;20053;-86
2022/04/10 07:43:42;;;;;;;18.52;2.55;;;6.00;99.90;;;;;;4880219;29;20083;-86
2022/04/10 07:48:51;;;;;;;14.90;2.80;;;5.30;99.90;;;;;;4898643;29;20044;-87
2022/04/10 07:51:17;;;;;;;14.25;3.08;;;5.40;99.90;;;;;;4879752;29;20134;-87
2022/04/10 07:53:54;;;;;;;17.42;2.20;;;5.20;99.90;;;;;;4873373;29;20413;-85
2022/04/10 07:56:21;;;;;;;10.43;1.70;;;5.70;99.90;;;;;;4867137;29;20061;-86
2022/04/10 07:58:46;;;;;;;11.18;1.88;;;6.40;99.90;;;;;;4849154;29;20426;-84
2022/04/10 08:01:12;;;;;;;11.25;1.38;;;5.60;99.90;;;;;;4873139;29;20060;-86
2022/04/10 08:03:53;;;;;;;6.72;1.45;;;6.00;99.90;;;;;;4867937;29;20477;-86
2022/04/10 08:06:19;;;;;;;8.93;1.80;;;5.30;99.90;;;;;;4865495;29;20053;-85
2022/04/10 08:08:45;;;;;;;14.30;1.77;;;6.10;99.90;;;;;;4863320;29;20056;-85
2022/04/10 08:11:10;;;;;;;15.65;2.53;;;6.10;99.90;;;;;;4875793;29;20051;-86
2022/04/10 08:13:46;;;;;;;12.90;2.00;;;6.70;99.90;;;;;;4871050;29;20037;-85
2022/04/10 08:16:14;;;;;;;13.98;1.67;;;6.20;99.90;;;;;;4863492;29;20047;-86
2022/04/10 08:18:40;;;;;;;10.88;2.03;;;6.80;99.90;;;;;;4863828;29;20044;-84
2022/04/10 08:21:07;;;;;;;12.60;1.95;;;6.60;99.90;;;;;;4886842;29;20043;-85
2022/04/10 08:23:44;;;;;;;14.85;2.25;;;6.50;99.90;;;;;;4871167;29;20095;-85
2022/04/10 08:26:10;;;;;;;9.73;1.95;;;6.90;99.90;;;;;;4874678;29;20075;-85
2022/04/10 08:28:35;;;;;;;13.25;2.65;;;7.00;99.90;;;;;;4885145;29;20135;-85
2022/04/10 08:31:01;;;;;;;11.88;1.50;;;7.70;99.90;;;;;;4884483;29;20497;-86
2022/04/10 08:33:27;;;;;;;15.32;1.90;;;7.80;99.90;;;;;;4875250;29;20131;-85
2022/04/10 08:36:01;;;;;;;13.80;2.13;;;7.70;99.90;;;;;;4877363;29;20401;-85
2022/04/10 08:38:27;;;;;;;16.10;2.00;;;6.90;99.90;;;;;;4869515;29;20068;-86
2022/04/10 08:40:59;;;;;;;16.98;1.92;;;7.00;99.90;;;;;;4870992;29;20497;-85
2022/04/10 08:43:38;;;;;;;13.93;2.00;;;7.50;99.90;;;;;;4867287;29;20056;-85
2022/04/10 08:46:05;;;;;;;13.73;2.33;;;7.00;99.90;;;;;;4864877;29;20057;-84
2022/04/10 08:48:32;;;;;;;10.10;1.60;;;7.90;99.90;;;;;;4875836;29;20088;-86
2022/04/10 08:50:59;;;;;;;10.82;1.95;;;7.40;99.90;;;;;;4862455;29;20048;-84
2022/04/10 08:53:38;;;;;;;11.02;1.58;;;7.50;99.90;;;;;;4857012;29;20048;-84
2022/04/10 08:56:06;;;;;;;14.93;1.73;;;8.50;99.90;;;;;;4878896;29;20043;-84
2022/04/10 08:58:31;;;;;;;12.45;1.60;;;7.50;99.90;;;;;;4870922;29;20588;-83
2022/04/10 09:00:58;;;;;;;15.38;1.70;;;7.60;99.90;;;;;;4860955;29;20076;-84
2022/04/10 09:03:33;;;;;;;11.48;1.50;;;7.60;99.90;;;;;;4868810;29;20099;-85
2022/04/10 09:06:02;;;;;;;16.48;2.38;;;8.50;99.90;;;;;;4893244;29;20449;-85
2022/04/10 09:08:27;;;;;;;12.65;1.85;;;7.80;99.90;;;;;;4877076;29;20048;-85
2022/04/10 09:10:59;;;;;;;8.68;1.90;;;7.80;99.90;;;;;;4860805;29;20045;-82
2022/04/10 09:13:31;;;;;;;12.02;1.88;;;7.60;99.90;;;;;;4895246;29;20060;-86
2022/04/10 09:16:06;;;;;;;8.40;1.60;;;7.60;99.90;;;;;;4875010;29;20044;-85
2022/04/10 09:18:47;;;;;;;8.27;1.38;;;7.60;99.90;;;;;;4883223;29;20115;-82
2022/04/10 09:21:13;;;;;;;8.63;1.45;;;7.60;99.90;;;;;;4861856;29;20131;-85
2022/04/10 09:23:39;;;;;;;6.13;1.60;;;8.40;99.90;;;;;;4860978;29;20044;-86
2022/04/10 09:26:05;;;;;;;5.75;1.13;;;7.70;99.90;;;;;;4889225;29;20059;-83
2022/04/10 09:28:42;;;;;;;9.65;1.38;;;8.60;99.90;;;;;;4881475;29;20040;-84
2022/04/10 09:31:25;;;;;;;9.63;1.52;;;8.20;99.90;;;;;;4875994;29;20049;-84
2022/04/10 09:33:52;;;;;;;11.68;1.63;;;7.90;99.90;;;;;;4877824;29;20108;-88
2022/04/10 09:36:29;;;;;;;9.02;1.52;;;8.80;99.90;;;;;;4866712;29;20046;-89
2022/04/10 09:38:55;;;;;;;7.50;1.35;;;8.00;99.90;;;;;;4877396;29;20115;-88
2022/04/10 09:41:41;;;;;;;9.43;1.63;;;8.00;99.90;;;;;;4863766;29;20057;-88
2022/04/10 09:44:32;;;;;;;7.40;1.58;;;7.90;99.90;;;;;;4860145;29;20128;-87
2022/04/10 09:47:03;;;;;;;10.02;1.40;;;7.70;99.90;;;;;;4856491;29;20044;-89
2022/04/10 09:49:42;;;;;;;10.73;1.35;;;8.30;99.90;;;;;;4862461;29;20527;-85
2022/04/10 09:52:11;;;;;;;7.53;1.67;;;8.50;99.90;;;;;;4862054;29;20088;-86
2022/04/10 09:54:42;;;;;;;11.75;2.10;;;8.30;99.90;;;;;;4868513;29;20084;-84
2022/04/10 09:57:13;;;;;;;12.93;1.65;;;8.00;99.90;;;;;;4889073;29;20112;-85
2022/04/10 09:59:43;;;;;;;10.07;1.35;;;8.00;99.90;;;;;;4874450;29;20056;-85
2022/04/10 10:02:11;;;;;;;10.98;1.70;;;7.60;99.90;;;;;;4875502;29;20560;-85
2022/04/10 10:04:38;;;;;;;9.00;1.25;;;8.10;99.90;;;;;;4860690;29;20120;-83
2022/04/10 10:07:08;;;;;;;8.55;1.40;;;8.00;99.90;;;;;;4869658;29;20044;-84
2022/04/10 10:09:35;;;;;;;11.68;1.85;;;7.90;99.90;;;;;;4872005;29;20041;-83
2022/04/10 10:12:04;;;;;;;9.35;1.70;;;8.10;99.90;;;;;;4872836;29;20139;-83
2022/04/10 10:14:31;;;;;;;11.30;1.80;;;8.20;99.90;;;;;;4857026;29;20520;-82
2022/04/10 10:17:00;;;;;;;14.20;1.48;;;9.30;99.90;;;;;;4870946;29;20096;-84
2022/04/10 10:19:29;;;;;;;9.05;1.40;;;9.20;99.90;;;;;;4872826;29;20056;-83
2022/04/10 10:22:10;;;;;;;12.85;1.42;;;8.60;99.90;;;;;;4889889;29;20052;-82
2022/04/10 10:24:48;;;;;;;8.95;1.52;;;9.40;99.90;;;;;;4876320;29;20124;-83
2022/04/10 10:27:48;;;;;;;11.32;1.30;;;8.80;99.90;;;;;;4890854;29;20056;-82
2022/04/10 10:30:41;;;;;;;10.13;1.40;;;8.80;99.90;;;;;;4874942;29;20499;-81
2022/04/10 10:33:21;;;;;;;8.32;1.63;;;8.70;99.90;;;;;;4891112;29;20179;-82
2022/04/10 10:35:54;;;;;;;7.18;1.30;;;8.70;99.90;;;;;;4875877;29;20080;-83
2022/04/10 10:38:22;;;;;;;6.82;1.70;;;8.60;99.90;;;;;;4875988;29;20056;-82
2022/04/10 10:40:49;;;;;;;11.80;1.70;;;8.40;99.90;;;;;;4876086;29;20401;-82
2022/04/10 10:43:20;;;;;;;14.10;1.80;;;9.00;99.90;;;;;;4891520;29;20528;-82
2022/04/10 10:45:48;;;;;;;8.35;1.33;;;8.50;99.90;;;;;;4891228;29;20536;-81
2022/04/10 10:48:34;;;;;;;15.68;1.50;;;8.60;99.90;;;;;;4891013;29;20056;-82
2022/04/10 10:51:02;;;;;;;7.97;1.30;;;8.70;99.90;;;;;;4875704;29;20510;-81
2022/04/10 10:53:52;;;;;;;5.78;1.25;;;8.90;99.90;;;;;;4875751;29;20060;-81
2022/04/10 10:56:20;;;;;;;9.63;1.42;;;8.80;99.90;;;;;;4891949;29;20052;-81
2022/04/10 10:58:49;;;;;;;6.80;1.20;;;8.90;99.90;;;;;;4875671;29;20053;-81
2022/04/10 11:01:18;;;;;;;6.30;1.35;;;9.30;99.90;;;;;;4875758;29;20147;-82
2022/04/10 11:04:02;;;;;;;8.70;1.38;;;9.10;99.90;;;;;;4876500;29;20052;-81
2022/04/10 11:06:30;;;;;;;7.35;1.20;;;9.10;99.90;;;;;;4884958;29;20505;-81
2022/04/10 11:08:55;;;;;;;10.07;1.50;;;9.20;99.90;;;;;;4852448;29;20068;-85
2022/04/10 11:11:34;;;;;;;12.10;1.55;;;9.90;99.90;;;;;;4864305;29;20052;-82
2022/04/10 11:14:00;;;;;;;9.15;1.60;;;10.20;99.90;;;;;;4858976;29;20080;-82
2022/04/10 11:16:28;;;;;;;6.82;1.10;;;9.40;99.90;;;;;;4860462;29;20116;-82
2022/04/10 11:18:56;;;;;;;8.63;1.55;;;9.30;99.90;;;;;;4875963;29;20072;-82
2022/04/10 11:21:23;;;;;;;6.97;1.10;;;9.40;99.90;;;;;;4860708;29;20053;-82
2022/04/10 11:23:50;;;;;;;11.93;1.48;;;10.20;99.90;;;;;;4875726;29;20139;-82
2022/04/10 11:26:19;;;;;;;8.70;1.38;;;10.20;99.90;;;;;;4860347;29;20063;-82
2022/04/10 11:29:04;;;;;;;9.10;1.13;;;9.40;99.90;;;;;;4860219;29;20452;-82
2022/04/10 11:31:44;;;;;;;10.10;2.63;;;9.40;99.90;;;;;;4860393;29;20087;-81
2022/04/10 11:34:18;;;;;;;10.30;1.10;;;9.50;99.90;;;;;;4862725;29;20108;-82
2022/04/10 11:36:52;;;;;;;11.88;1.08;;;9.30;99.90;;;;;;4863808;29;20056;-82
2022/04/10 11:39:22;;;;;;;9.15;0.98;;;10.00;99.90;;;;;;4862868;29;20053;-82
2022/04/10 11:41:58;;;;;;;7.05;1.13;;;10.50;99.90;;;;;;4860543;29;20049;-83
2022/04/10 11:44:25;;;;;;;7.00;0.90;;;10.10;99.90;;;;;;4858627;29;20487;-82
2022/04/10 11:46:51;;;;;;;8.13;1.92;;;10.00;99.90;;;;;;4860120;29;20136;-82
2022/04/10 11:49:19;;;;;;;6.10;1.35;;;10.20;99.90;;;;;;4856773;29;20141;-82
2022/04/10 11:51:51;;;;;;;8.50;1.75;;;10.50;99.90;;;;;;4841293;29;20045;-82
2022/04/10 11:54:28;;;;;;;7.10;1.25;;;10.60;99.90;;;;;;4856778;29;20046;-82
2022/04/10 11:56:54;;;;;;;8.07;1.13;;;10.40;99.90;;;;;;4841473;29;20097;-82
2022/04/10 11:59:21;;;;;;;14.10;1.45;;;11.40;99.90;;;;;;4855948;29;20062;-82
2022/04/10 12:01:51;;;;;;;5.78;1.33;;;10.80;99.90;;;;;;4856997;29;20038;-82
2022/04/10 12:04:19;;;;;;;8.43;1.40;;;10.60;99.90;;;;;;4840700;29;20049;-82
2022/04/10 12:06:46;;;;;;;12.43;1.35;;;10.80;99.90;;;;;;4842087;29;20310;-82
2022/04/10 12:09:12;;;;;;;8.60;1.35;;;10.30;99.90;;;;;;4841053;29;20140;-82
2022/04/10 12:11:39;;;;;;;9.07;1.40;;;10.60;99.90;;;;;;4856103;29;20136;-81
2022/04/10 12:14:17;;;;;;;10.38;1.67;;;10.20;99.90;;;;;;4855850;29;20102;-81
2022/04/10 12:16:44;;;;;;;10.13;1.52;;;10.20;99.90;;;;;;4857107;29;20056;-82
2022/04/10 12:19:09;;;;;;;7.63;1.00;;;11.00;99.90;;;;;;4855793;29;20085;-82
2022/04/10 12:21:49;;;;;;;4.85;1.02;;;10.50;99.90;;;;;;4856925;29;20096;-82
2022/04/10 12:24:20;;;;;;;5.65;1.05;;;10.40;99.90;;;;;;4867473;29;20112;-88
2022/04/10 12:26:47;;;;;;;8.77;1.30;;;9.30;99.90;;;;;;4859278;29;20041;-81
2022/04/10 12:29:17;;;;;;;7.03;1.35;;;9.90;99.90;;;;;;4858151;29;20044;-85
2022/04/10 12:31:43;;;;;;;8.85;1.00;;;10.20;99.90;;;;;;4859414;29;20413;-82
2022/04/10 12:34:10;;;;;;;12.40;1.30;;;9.70;99.90;;;;;;4858134;29;20134;-82
2022/04/10 12:36:44;;;;;;;11.05;1.52;;;10.20;99.90;;;;;;4862359;29;20120;-83
2022/04/10 12:39:10;;;;;;;11.50;1.60;;;10.50;99.90;;;;;;4858199;29;20049;-83
2022/04/10 12:41:39;;;;;;;8.85;1.60;;;10.00;99.90;;;;;;4860098;29;20041;-84
2022/04/10 12:44:06;;;;;;;11.77;1.92;;;10.10;99.90;;;;;;4857163;29;20057;-83
2022/04/10 12:46:35;;;;;;;14.98;1.60;;;10.00;99.90;;;;;;4860394;29;20041;-82
2022/04/10 12:49:11;;;;;;;10.95;1.42;;;9.90;99.90;;;;;;4858632;29;20167;-82
2022/04/10 12:51:47;;;;;;;6.78;1.10;;;9.80;99.90;;;;;;4858695;29;20068;-83
2022/04/10 12:54:13;;;;;;;11.75;1.60;;;9.80;99.90;;;;;;4884468;29;20041;-83
2022/04/10 12:56:39;;;;;;;8.48;1.70;;;10.30;99.90;;;;;;4873681;29;20056;-82
2022/04/10 12:59:05;;;;;;;12.32;1.42;;;10.90;99.90;;;;;;4857087;29;20064;-83
2022/04/10 13:01:31;;;;;;;11.13;1.52;;;10.20;99.90;;;;;;4857628;29;20092;-84
2022/04/10 13:04:00;;;;;;;10.52;1.45;;;11.10;99.90;;;;;;4857907;29;20044;-83
2022/04/10 13:06:45;;;;;;;9.45;1.48;;;10.50;99.90;;;;;;4859976;29;20053;-83